Time;durP1;ratioP1;P1;durP2;ratioP2;P2;SDS_P1;SDS_P2;PMS_P1;PMS_P2;Temp;Humidity;BMP_temperature;BMP_pressure;BME280_temperature;BME280_humidity;BME280_pressure;Samples;Min_cycle;Max_cycle;Signal;HPM_P1;HPM_P2
2023/01/08 00:00:24;;;;;;;8.77;7.97;;;6.80;99.90;;;;;;4992884;28;20273;-72
2023/01/08 00:02:50;;;;;;;8.97;8.10;;;6.80;99.90;;;;;;5002628;28;20212;-71
2023/01/08 00:05:16;;;;;;;10.07;7.47;;;6.80;99.90;;;;;;5001037;28;20175;-71
2023/01/08 00:07:41;;;;;;;10.20;7.90;;;6.80;99.90;;;;;;4999803;28;20800;-71
2023/01/08 00:10:07;;;;;;;8.73;7.30;;;6.80;99.90;;;;;;4999083;28;20639;-72
2023/01/08 00:12:33;;;;;;;9.97;8.00;;;6.80;99.90;;;;;;5001087;28;20219;-71
2023/01/08 00:14:58;;;;;;;8.90;7.97;;;6.80;99.90;;;;;;4998053;28;20176;-71
2023/01/08 00:17:24;;;;;;;13.33;10.57;;;6.80;99.90;;;;;;4993968;28;20883;-72
2023/01/08 00:19:49;;;;;;;8.03;7.33;;;6.80;99.90;;;;;;5000716;28;20178;-71
2023/01/08 00:22:15;;;;;;;10.10;8.30;;;6.80;99.90;;;;;;5003047;28;20200;-71
2023/01/08 00:24:40;;;;;;;10.37;8.37;;;6.80;99.90;;;;;;5002754;28;20806;-71
2023/01/08 00:27:06;;;;;;;8.70;7.67;;;6.80;99.90;;;;;;4999129;28;20172;-72
2023/01/08 00:29:31;;;;;;;10.63;8.73;;;6.80;99.90;;;;;;4999675;28;20183;-72
2023/01/08 00:31:57;;;;;;;9.70;8.30;;;6.80;99.90;;;;;;5005889;28;20624;-72
2023/01/08 00:34:23;;;;;;;8.13;7.30;;;6.70;99.90;;;;;;5004761;28;20694;-70
2023/01/08 00:36:48;;;;;;;8.20;7.40;;;6.80;99.90;;;;;;5007062;28;20183;-71
2023/01/08 00:39:14;;;;;;;8.50;7.63;;;6.70;99.90;;;;;;4998254;28;20286;-71
2023/01/08 00:41:43;;;;;;;8.40;7.60;;;6.80;99.90;;;;;;5006096;28;20215;-72
2023/01/08 00:44:08;;;;;;;10.70;8.03;;;6.80;99.90;;;;;;5007119;28;20183;-72
2023/01/08 00:46:34;;;;;;;9.43;8.43;;;6.80;99.90;;;;;;5002686;28;20785;-72
2023/01/08 00:49:00;;;;;;;9.37;7.93;;;6.80;99.90;;;;;;4997003;28;20175;-71
2023/01/08 00:51:25;;;;;;;8.60;7.80;;;6.70;99.90;;;;;;5000301;28;20556;-72
2023/01/08 00:53:51;;;;;;;9.40;8.30;;;6.70;99.90;;;;;;5007121;28;20426;-72
2023/01/08 00:56:16;;;;;;;7.40;6.50;;;6.60;99.90;;;;;;5006035;28;20520;-71
2023/01/08 00:58:42;;;;;;;7.70;7.00;;;6.50;99.90;;;;;;5001762;28;20270;-70
2023/01/08 01:01:10;;;;;;;8.90;7.13;;;6.50;99.90;;;;;;5002009;28;20218;-72
2023/01/08 01:03:35;;;;;;;8.60;7.40;;;6.50;99.90;;;;;;5005336;28;20207;-71
2023/01/08 01:06:03;;;;;;;9.73;8.67;;;6.50;99.90;;;;;;5006217;28;20793;-71
2023/01/08 01:08:28;;;;;;;9.00;7.30;;;6.50;99.90;;;;;;5003944;28;20202;-72
2023/01/08 01:10:54;;;;;;;8.00;7.20;;;6.40;99.90;;;;;;5002965;28;20470;-71
2023/01/08 01:13:20;;;;;;;9.23;6.60;;;6.40;99.90;;;;;;5002272;28;20187;-72
2023/01/08 01:15:55;;;;;;;7.70;6.90;;;6.30;99.90;;;;;;5005594;28;20179;-72
2023/01/08 01:18:20;;;;;;;10.10;7.33;;;6.30;99.90;;;;;;5005329;28;20182;-71
2023/01/08 01:20:46;;;;;;;9.03;8.13;;;6.20;99.90;;;;;;4998724;28;20521;-71
2023/01/08 01:23:11;;;;;;;8.57;7.77;;;6.30;99.90;;;;;;5003936;28;20285;-72
2023/01/08 01:25:37;;;;;;;9.97;8.97;;;6.20;99.90;;;;;;5000441;28;20238;-71
2023/01/08 01:28:02;;;;;;;8.90;7.90;;;6.20;99.90;;;;;;5002176;28;20544;-72
2023/01/08 01:30:28;;;;;;;10.70;8.10;;;6.20;99.90;;;;;;4997828;28;20567;-72
2023/01/08 01:32:54;;;;;;;7.80;7.00;;;6.30;99.90;;;;;;4998154;28;20798;-71
2023/01/08 01:35:19;;;;;;;10.93;7.20;;;6.30;99.90;;;;;;5004837;28;20178;-72
2023/01/08 01:37:45;;;;;;;8.53;7.50;;;6.10;99.90;;;;;;5005438;28;20186;-72
2023/01/08 01:40:10;;;;;;;8.77;7.87;;;6.10;99.90;;;;;;4995980;28;20230;-72
2023/01/08 01:42:38;;;;;;;8.20;7.33;;;6.10;99.90;;;;;;5004613;28;20673;-72
2023/01/08 01:45:18;;;;;;;10.17;7.90;;;6.00;99.90;;;;;;5005041;28;20223;-71
2023/01/08 01:47:54;;;;;;;8.60;7.67;;;6.00;99.90;;;;;;5001042;28;20446;-71
2023/01/08 01:50:53;;;;;;;8.30;7.50;;;6.00;99.90;;;;;;5002244;28;20589;-71
2023/01/08 01:53:25;;;;;;;8.10;7.03;;;6.10;99.90;;;;;;4966673;28;20444;-72
2023/01/08 01:55:52;;;;;;;8.07;7.07;;;6.10;99.90;;;;;;4994207;28;20442;-71
2023/01/08 01:58:23;;;;;;;10.30;8.40;;;6.10;99.90;;;;;;5016677;28;20439;-72
2023/01/08 02:00:50;;;;;;;8.97;8.03;;;6.30;99.90;;;;;;4992905;28;20429;-72
2023/01/08 02:03:20;;;;;;;8.27;7.37;;;6.20;99.90;;;;;;5004655;28;20608;-72
2023/01/08 02:05:55;;;;;;;9.23;7.47;;;6.30;99.90;;;;;;4999643;28;20470;-72
2023/01/08 02:08:41;;;;;;;8.73;7.07;;;6.30;99.90;;;;;;4998447;28;20426;-71
2023/01/08 02:11:15;;;;;;;8.13;7.30;;;6.40;99.90;;;;;;4997977;28;21045;-71
2023/01/08 02:13:47;;;;;;;9.73;7.60;;;6.40;99.90;;;;;;5002831;28;20438;-72
2023/01/08 02:16:25;;;;;;;8.60;6.80;;;6.40;99.90;;;;;;5000934;28;20445;-71
2023/01/08 02:19:00;;;;;;;6.57;5.90;;;6.50;99.90;;;;;;4993092;28;20433;-72
2023/01/08 02:21:50;;;;;;;9.63;7.53;;;6.50;99.90;;;;;;4999773;28;20536;-71
2023/01/08 02:24:50;;;;;;;7.50;6.80;;;6.60;99.90;;;;;;5000282;28;20481;-72
2023/01/08 02:27:17;;;;;;;7.63;6.90;;;6.60;99.90;;;;;;4996956;28;20422;-72
2023/01/08 02:29:43;;;;;;;8.97;7.40;;;6.50;99.90;;;;;;5001521;28;20755;-72
2023/01/08 02:32:09;;;;;;;7.87;7.17;;;6.60;99.90;;;;;;5001002;28;20458;-71
2023/01/08 02:34:34;;;;;;;8.43;7.00;;;6.70;99.90;;;;;;4998122;28;20431;-71
2023/01/08 02:37:00;;;;;;;7.83;7.10;;;6.70;99.90;;;;;;4998111;28;20180;-72
2023/01/08 02:39:48;;;;;;;8.10;7.30;;;6.70;99.90;;;;;;5000377;28;20175;-72
2023/01/08 02:42:16;;;;;;;7.50;6.73;;;6.70;99.90;;;;;;5010171;28;20209;-72
2023/01/08 02:45:01;;;;;;;9.67;7.37;;;6.60;99.90;;;;;;5006721;28;20485;-71
2023/01/08 02:47:43;;;;;;;8.20;7.40;;;6.50;99.90;;;;;;4993927;28;20423;-71
2023/01/08 02:50:20;;;;;;;9.17;7.17;;;6.30;99.90;;;;;;4993653;28;20419;-72
2023/01/08 02:53:00;;;;;;;9.50;7.00;;;6.30;99.90;;;;;;4993791;28;20963;-71
2023/01/08 02:55:27;;;;;;;9.87;7.67;;;6.20;99.90;;;;;;4994010;28;20431;-72
2023/01/08 02:57:53;;;;;;;8.43;6.77;;;6.20;99.90;;;;;;4993704;28;20430;-71
2023/01/08 03:00:20;;;;;;;9.90;7.30;;;6.20;99.90;;;;;;4993561;28;20916;-71
2023/01/08 03:02:48;;;;;;;8.30;6.73;;;6.20;99.90;;;;;;4991896;28;20294;-71
2023/01/08 03:05:26;;;;;;;7.83;6.93;;;6.20;99.90;;;;;;4999195;28;20796;-71
2023/01/08 03:07:53;;;;;;;8.80;7.97;;;6.20;99.90;;;;;;4996925;28;20984;-71
2023/01/08 03:10:23;;;;;;;10.10;6.83;;;6.10;99.90;;;;;;5001892;28;20434;-71
2023/01/08 03:13:04;;;;;;;8.20;7.27;;;6.10;99.90;;;;;;4999019;28;20998;-72
2023/01/08 03:15:36;;;;;;;9.00;8.10;;;6.00;99.90;;;;;;4996914;28;20557;-72
2023/01/08 03:18:09;;;;;;;10.33;7.10;;;6.00;99.90;;;;;;4998422;28;20462;-71
2023/01/08 03:20:36;;;;;;;10.07;7.47;;;6.10;99.90;;;;;;5004605;28;20433;-72
2023/01/08 03:23:05;;;;;;;9.57;7.63;;;6.20;99.90;;;;;;4996498;28;20473;-71
2023/01/08 03:25:33;;;;;;;8.93;7.10;;;6.10;99.90;;;;;;5003100;28;20518;-71
2023/01/08 03:28:04;;;;;;;6.87;6.27;;;6.20;99.90;;;;;;5001845;28;20456;-71
2023/01/08 03:30:30;;;;;;;9.63;7.67;;;6.30;99.90;;;;;;5002358;28;20821;-72
2023/01/08 03:32:58;;;;;;;8.93;6.90;;;6.30;99.90;;;;;;4993209;28;20466;-72
2023/01/08 03:35:25;;;;;;;7.67;6.97;;;6.30;99.90;;;;;;4999434;28;20538;-72
2023/01/08 03:37:57;;;;;;;7.93;7.10;;;6.40;99.90;;;;;;4997954;28;20442;-72
2023/01/08 03:40:28;;;;;;;8.00;7.17;;;6.50;99.90;;;;;;5004868;28;20425;-72
2023/01/08 03:42:56;;;;;;;7.03;6.40;;;6.50;99.90;;;;;;5012582;28;20461;-72
2023/01/08 03:45:23;;;;;;;8.20;6.27;;;6.60;99.90;;;;;;4973579;28;20922;-72
2023/01/08 03:47:49;;;;;;;7.33;6.60;;;6.60;99.90;;;;;;4973627;28;20480;-72
2023/01/08 03:50:20;;;;;;;7.23;6.40;;;6.70;99.90;;;;;;4973198;28;20430;-71
2023/01/08 03:52:45;;;;;;;9.77;6.27;;;6.70;99.90;;;;;;4973411;28;20454;-72
2023/01/08 03:55:11;;;;;;;6.87;6.17;;;6.70;99.90;;;;;;4973680;28;20498;-72
2023/01/08 03:57:36;;;;;;;6.67;6.03;;;6.70;99.90;;;;;;4992736;28;20333;-72
2023/01/08 04:00:03;;;;;;;6.77;6.17;;;6.70;99.90;;;;;;4992616;28;20179;-72
2023/01/08 04:02:28;;;;;;;6.67;5.97;;;6.70;99.90;;;;;;4992644;28;20200;-71
2023/01/08 04:04:54;;;;;;;7.87;6.43;;;6.70;99.90;;;;;;4992770;28;20433;-72
2023/01/08 04:07:19;;;;;;;8.67;6.37;;;6.70;99.90;;;;;;4992832;28;20168;-72
2023/01/08 04:09:45;;;;;;;6.07;5.00;;;6.70;99.90;;;;;;4992144;28;20182;-71
2023/01/08 04:12:11;;;;;;;5.97;5.30;;;6.70;99.90;;;;;;4999118;28;20568;-71
2023/01/08 04:14:36;;;;;;;10.00;5.27;;;6.80;99.90;;;;;;5001468;28;20434;-72
2023/01/08 04:17:02;;;;;;;6.83;6.13;;;6.90;99.90;;;;;;5002829;28;20182;-71
2023/01/08 04:19:28;;;;;;;4.83;4.33;;;7.00;99.90;;;;;;5000744;28;20550;-71
2023/01/08 04:21:53;;;;;;;6.43;5.70;;;7.10;99.90;;;;;;4998148;28;20207;-72
2023/01/08 04:24:19;;;;;;;7.00;4.53;;;7.20;99.90;;;;;;4999165;28;20245;-72
2023/01/08 04:26:45;;;;;;;4.17;3.80;;;7.30;99.90;;;;;;5002172;28;20190;-71
2023/01/08 04:29:11;;;;;;;5.83;4.77;;;7.40;99.90;;;;;;4996313;28;20186;-71
2023/01/08 04:31:37;;;;;;;5.83;4.17;;;7.50;99.90;;;;;;5000437;28;20507;-71
2023/01/08 04:34:03;;;;;;;4.80;4.27;;;7.70;99.90;;;;;;4993172;28;20864;-71
2023/01/08 04:36:28;;;;;;;7.30;4.80;;;7.80;99.90;;;;;;4993832;28;20207;-70
2023/01/08 04:38:54;;;;;;;4.30;3.90;;;7.80;99.90;;;;;;4998348;28;20270;-72
2023/01/08 04:41:19;;;;;;;5.03;3.70;;;7.80;99.90;;;;;;4999042;28;20214;-71
2023/01/08 04:43:45;;;;;;;3.83;3.50;;;7.90;99.90;;;;;;4996458;28;20290;-72
2023/01/08 04:46:10;;;;;;;8.43;3.90;;;8.00;99.90;;;;;;4997445;28;20183;-72
2023/01/08 04:48:36;;;;;;;4.70;4.37;;;8.20;99.90;;;;;;4992441;28;20241;-71
2023/01/08 04:51:03;;;;;;;4.30;3.90;;;8.30;99.90;;;;;;4998986;28;20199;-72
2023/01/08 04:53:31;;;;;;;4.00;3.60;;;8.40;99.90;;;;;;5000647;28;20869;-72
2023/01/08 04:56:05;;;;;;;4.70;4.20;;;8.50;99.90;;;;;;5003315;28;20495;-72
2023/01/08 04:58:32;;;;;;;3.63;3.33;;;8.60;99.90;;;;;;4995722;28;20450;-72
2023/01/08 05:00:58;;;;;;;4.60;4.20;;;8.60;99.90;;;;;;4999796;28;20988;-72
2023/01/08 05:03:23;;;;;;;5.87;3.13;;;8.60;99.90;;;;;;4998358;28;20516;-71
2023/01/08 05:05:49;;;;;;;4.57;3.63;;;8.60;99.90;;;;;;5003172;28;20225;-71
2023/01/08 05:08:14;;;;;;;5.50;5.00;;;8.60;99.90;;;;;;4996071;28;20921;-72
2023/01/08 05:10:40;;;;;;;3.60;3.10;;;8.60;99.90;;;;;;5002821;28;20271;-71
2023/01/08 05:13:05;;;;;;;5.20;3.17;;;8.50;99.90;;;;;;5002363;28;20568;-74
2023/01/08 05:15:31;;;;;;;4.07;2.73;;;8.40;99.90;;;;;;4999695;28;20238;-73
2023/01/08 05:18:01;;;;;;;3.87;3.57;;;8.40;99.90;;;;;;5006494;28;20171;-73
2023/01/08 05:20:28;;;;;;;3.53;3.20;;;8.40;99.90;;;;;;5003354;28;20205;-72
2023/01/08 05:22:53;;;;;;;3.10;2.80;;;8.40;99.90;;;;;;5001955;28;20561;-73
2023/01/08 05:25:19;;;;;;;2.40;1.70;;;8.40;99.90;;;;;;5001739;28;20885;-73
2023/01/08 05:27:45;;;;;;;2.67;2.47;;;8.40;99.90;;;;;;5005584;28;20694;-73
2023/01/08 05:30:11;;;;;;;2.43;2.23;;;8.40;99.90;;;;;;4997033;28;20179;-73
2023/01/08 05:32:37;;;;;;;2.43;2.23;;;8.40;99.90;;;;;;4994196;28;20461;-74
2023/01/08 05:35:03;;;;;;;3.80;2.47;;;8.30;99.90;;;;;;4999050;28;20426;-73
2023/01/08 05:37:28;;;;;;;2.70;2.50;;;8.30;99.90;;;;;;5004158;28;20187;-73
2023/01/08 05:39:54;;;;;;;3.17;2.77;;;8.30;99.90;;;;;;5000688;28;20188;-74
2023/01/08 05:42:19;;;;;;;3.30;2.10;;;8.30;99.90;;;;;;4997279;28;20673;-73
2023/01/08 05:44:45;;;;;;;2.60;1.97;;;8.20;99.90;;;;;;5004735;28;20171;-71
2023/01/08 05:47:10;;;;;;;2.40;2.20;;;8.20;99.90;;;;;;4998484;28;20250;-73
2023/01/08 05:49:36;;;;;;;4.80;2.33;;;8.20;99.90;;;;;;4998036;28;20198;-72
2023/01/08 05:52:01;;;;;;;3.17;2.87;;;8.10;99.90;;;;;;5003741;28;20572;-73
2023/01/08 05:54:27;;;;;;;2.27;1.93;;;8.10;99.90;;;;;;5003151;28;20178;-73
2023/01/08 05:56:52;;;;;;;2.60;2.40;;;8.00;99.90;;;;;;5005871;28;20262;-74
2023/01/08 05:59:18;;;;;;;2.60;2.40;;;8.00;99.90;;;;;;4997306;28;20178;-73
2023/01/08 06:01:43;;;;;;;2.37;2.17;;;7.90;99.90;;;;;;5003039;28;20250;-73
2023/01/08 06:04:09;;;;;;;3.50;2.57;;;7.90;99.90;;;;;;5001029;28;20200;-73
2023/01/08 06:06:34;;;;;;;2.70;2.17;;;7.90;99.90;;;;;;5003016;28;20172;-73
2023/01/08 06:09:00;;;;;;;2.43;2.23;;;7.80;99.90;;;;;;4997273;28;20183;-73
2023/01/08 06:11:25;;;;;;;2.50;2.30;;;7.80;99.90;;;;;;5006539;28;20218;-71
2023/01/08 06:13:51;;;;;;;2.30;2.20;;;7.80;99.90;;;;;;5000795;28;20200;-71
2023/01/08 06:16:16;;;;;;;3.67;3.17;;;7.80;99.90;;;;;;5001822;28;20705;-73
2023/01/08 06:18:42;;;;;;;2.70;2.17;;;7.80;99.90;;;;;;5000836;28;20187;-71
2023/01/08 06:21:07;;;;;;;1.77;1.67;;;7.80;99.90;;;;;;5004339;28;20199;-71
2023/01/08 06:23:33;;;;;;;2.57;2.37;;;7.70;99.90;;;;;;5006091;28;20207;-73
2023/01/08 06:26:00;;;;;;;4.30;2.20;;;7.70;99.90;;;;;;5004068;28;20646;-73
2023/01/08 06:28:26;;;;;;;2.90;1.90;;;7.70;99.90;;;;;;5000140;28;20182;-73
2023/01/08 06:30:52;;;;;;;2.90;2.10;;;7.70;99.90;;;;;;5004136;28;20483;-73
2023/01/08 06:33:18;;;;;;;2.43;2.00;;;7.60;99.90;;;;;;5002013;28;20449;-73
2023/01/08 06:35:44;;;;;;;2.53;1.93;;;7.60;99.90;;;;;;5001572;28;20530;-73
2023/01/08 06:38:09;;;;;;;2.13;1.93;;;7.60;99.90;;;;;;5000944;28;20554;-71
2023/01/08 06:40:35;;;;;;;2.10;1.87;;;7.70;99.90;;;;;;5002510;28;20279;-73
2023/01/08 06:43:04;;;;;;;1.83;1.67;;;7.70;99.90;;;;;;4999538;28;20642;-73
2023/01/08 06:45:30;;;;;;;2.00;1.90;;;7.70;99.90;;;;;;5001241;28;20671;-71
2023/01/08 06:48:00;;;;;;;2.10;1.77;;;7.70;99.90;;;;;;4999921;28;21092;-71
2023/01/08 06:50:26;;;;;;;3.43;1.90;;;7.70;99.90;;;;;;5005305;28;20430;-73
2023/01/08 06:52:53;;;;;;;2.93;1.53;;;7.70;99.90;;;;;;5000923;28;20465;-73
2023/01/08 06:55:19;;;;;;;2.90;2.07;;;7.70;99.90;;;;;;5000232;28;20462;-73
2023/01/08 06:57:45;;;;;;;3.00;2.17;;;7.70;99.90;;;;;;5004392;28;20492;-73
2023/01/08 07:00:11;;;;;;;3.30;1.80;;;7.70;99.90;;;;;;5003383;28;20438;-72
2023/01/08 07:02:36;;;;;;;2.40;2.27;;;7.70;99.90;;;;;;4999802;28;20211;-72
2023/01/08 07:05:02;;;;;;;2.10;1.93;;;7.70;99.90;;;;;;5004331;28;20966;-70
2023/01/08 07:07:28;;;;;;;1.90;1.80;;;7.70;99.90;;;;;;5000822;28;20191;-72
2023/01/08 07:09:53;;;;;;;3.20;2.40;;;7.70;99.90;;;;;;4999474;28;20207;-72
2023/01/08 07:12:18;;;;;;;2.87;2.37;;;7.70;99.90;;;;;;4997822;28;20219;-72
2023/01/08 07:14:44;;;;;;;2.87;2.17;;;7.70;99.90;;;;;;5006582;28;20179;-73
2023/01/08 07:17:09;;;;;;;1.97;1.87;;;7.60;99.90;;;;;;4997990;28;20714;-72
2023/01/08 07:19:35;;;;;;;2.00;1.80;;;7.70;99.90;;;;;;4998804;28;20180;-71
2023/01/08 07:22:01;;;;;;;1.50;1.40;;;7.70;99.90;;;;;;4999105;28;20211;-73
2023/01/08 07:24:26;;;;;;;2.30;2.10;;;7.60;99.90;;;;;;5002066;28;20202;-72
2023/01/08 07:26:52;;;;;;;1.90;1.63;;;7.70;99.90;;;;;;4996015;28;20317;-72
2023/01/08 07:29:17;;;;;;;2.70;2.50;;;7.70;99.90;;;;;;5001277;28;20186;-72
2023/01/08 07:31:43;;;;;;;2.20;1.93;;;7.60;99.90;;;;;;4998743;28;20710;-73
2023/01/08 07:34:08;;;;;;;2.13;1.93;;;7.60;99.90;;;;;;4998830;28;20648;-71
2023/01/08 07:36:34;;;;;;;2.20;1.90;;;7.60;99.90;;;;;;5005334;28;20187;-71
2023/01/08 07:38:59;;;;;;;3.10;2.00;;;7.60;99.90;;;;;;5002345;28;20185;-72
2023/01/08 07:41:25;;;;;;;2.10;2.00;;;7.50;99.90;;;;;;5002823;28;20559;-70
2023/01/08 07:43:51;;;;;;;1.70;1.60;;;7.50;99.90;;;;;;4992520;28;20203;-72
2023/01/08 07:46:16;;;;;;;3.40;2.20;;;7.50;99.90;;;;;;4999549;28;20437;-72
2023/01/08 07:48:42;;;;;;;6.03;3.63;;;7.50;99.90;;;;;;5003354;28;20191;-71
2023/01/08 07:51:08;;;;;;;6.80;4.70;;;7.50;99.90;;;;;;4999176;28;20699;-71
2023/01/08 07:53:35;;;;;;;3.23;2.93;;;7.50;99.90;;;;;;5002264;28;20206;-71
2023/01/08 07:56:06;;;;;;;2.03;1.93;;;7.50;99.90;;;;;;4999932;28;20442;-71
2023/01/08 07:58:32;;;;;;;2.00;1.80;;;7.40;99.90;;;;;;5001049;28;20434;-71
2023/01/08 08:00:58;;;;;;;1.60;1.50;;;7.50;99.90;;;;;;5002170;28;20959;-71
2023/01/08 08:03:24;;;;;;;3.30;1.73;;;7.50;99.90;;;;;;5003041;28;20521;-72
2023/01/08 08:05:50;;;;;;;2.37;2.17;;;7.50;99.90;;;;;;4997131;28;20171;-71
2023/01/08 08:08:16;;;;;;;2.33;1.90;;;7.50;99.90;;;;;;4995208;28;20958;-72
2023/01/08 08:10:42;;;;;;;2.13;1.93;;;7.50;99.90;;;;;;5001748;28;20426;-72
2023/01/08 08:13:08;;;;;;;4.80;2.10;;;7.50;99.90;;;;;;5003534;28;20449;-70
2023/01/08 08:15:35;;;;;;;2.03;1.83;;;7.50;99.90;;;;;;5001452;28;20423;-70
2023/01/08 08:18:01;;;;;;;2.03;1.83;;;7.50;99.90;;;;;;5001079;28;20215;-70
2023/01/08 08:20:26;;;;;;;2.97;2.37;;;7.40;99.90;;;;;;4993962;28;20471;-71
2023/01/08 08:22:59;;;;;;;1.90;1.80;;;7.50;99.90;;;;;;4998283;28;20252;-70
2023/01/08 08:25:25;;;;;;;2.20;2.03;;;7.40;99.90;;;;;;4995108;28;20226;-70
2023/01/08 08:27:50;;;;;;;1.87;1.73;;;7.40;99.90;;;;;;5000383;28;20449;-70
2023/01/08 08:30:16;;;;;;;3.20;2.90;;;7.40;99.90;;;;;;4998957;28;20184;-70
2023/01/08 08:32:41;;;;;;;2.93;2.10;;;7.40;99.90;;;;;;4997868;28;20211;-70
2023/01/08 08:35:07;;;;;;;3.23;2.43;;;7.40;99.90;;;;;;5002769;28;20266;-69
2023/01/08 08:37:32;;;;;;;3.00;2.23;;;7.40;99.90;;;;;;4999649;28;20649;-70
2023/01/08 08:39:58;;;;;;;6.57;3.70;;;7.40;99.90;;;;;;5002293;28;20197;-71
2023/01/08 08:42:23;;;;;;;3.20;2.77;;;7.40;99.90;;;;;;5002394;28;20214;-70
2023/01/08 08:44:49;;;;;;;3.00;1.93;;;7.40;99.90;;;;;;5002001;28;20688;-71
2023/01/08 08:47:14;;;;;;;2.93;2.63;;;7.40;99.90;;;;;;5003020;28;20175;-70
2023/01/08 08:49:40;;;;;;;2.90;2.70;;;7.40;99.90;;;;;;5004971;28;20184;-70
2023/01/08 08:52:06;;;;;;;1.80;1.60;;;7.40;99.90;;;;;;5004226;28;20202;-70
2023/01/08 08:54:32;;;;;;;2.87;2.03;;;7.40;99.90;;;;;;5007848;28;20187;-70
2023/01/08 08:56:57;;;;;;;1.77;1.67;;;7.40;99.90;;;;;;5003244;28;20183;-69
2023/01/08 08:59:23;;;;;;;4.00;2.90;;;7.40;99.90;;;;;;5002976;28;20430;-70
2023/01/08 09:01:48;;;;;;;2.20;1.70;;;7.40;99.90;;;;;;5005220;28;20243;-69
2023/01/08 09:04:14;;;;;;;3.07;1.80;;;7.40;99.90;;;;;;4999380;28;20203;-70
2023/01/08 09:06:39;;;;;;;4.33;2.27;;;7.40;99.90;;;;;;5006277;28;20305;-70
2023/01/08 09:09:05;;;;;;;2.10;1.93;;;7.50;99.90;;;;;;4994825;28;20670;-70
2023/01/08 09:11:31;;;;;;;4.30;2.50;;;7.50;99.90;;;;;;5002964;28;20211;-70
2023/01/08 09:13:56;;;;;;;1.90;1.80;;;7.50;99.90;;;;;;5005825;28;20185;-69
2023/01/08 09:16:22;;;;;;;4.23;2.13;;;7.50;99.90;;;;;;5006025;28;20262;-70
2023/01/08 09:18:48;;;;;;;2.53;2.33;;;7.50;99.90;;;;;;4999043;28;20188;-70
2023/01/08 09:21:14;;;;;;;2.60;2.40;;;7.60;99.90;;;;;;5002460;28;20195;-70
2023/01/08 09:23:39;;;;;;;1.80;1.70;;;7.60;99.90;;;;;;5004497;28;20462;-69
2023/01/08 09:26:05;;;;;;;2.73;2.40;;;7.60;99.90;;;;;;5005637;28;20429;-70
2023/01/08 09:28:31;;;;;;;2.53;2.33;;;7.60;99.90;;;;;;5003716;28;20233;-70
2023/01/08 09:31:01;;;;;;;2.80;2.00;;;7.60;99.90;;;;;;5000907;28;20183;-70
2023/01/08 09:33:27;;;;;;;2.23;2.03;;;7.70;99.90;;;;;;5002049;28;20797;-70
2023/01/08 09:35:53;;;;;;;1.90;1.80;;;7.70;99.90;;;;;;5002115;28;20476;-69
2023/01/08 09:38:18;;;;;;;2.50;2.30;;;7.80;99.90;;;;;;4998369;28;20470;-69
2023/01/08 09:41:01;;;;;;;3.83;2.07;;;7.80;99.90;;;;;;5009664;28;20179;-70
2023/01/08 09:43:29;;;;;;;5.33;2.57;;;7.80;99.90;;;;;;5010092;28;20207;-70
2023/01/08 09:45:58;;;;;;;6.00;3.03;;;7.80;99.90;;;;;;4995203;28;20851;-70
2023/01/08 09:48:36;;;;;;;3.53;2.37;;;7.80;99.90;;;;;;4994845;28;20522;-70
2023/01/08 09:51:03;;;;;;;2.40;2.20;;;7.80;99.90;;;;;;4995060;28;21003;-70
2023/01/08 09:53:29;;;;;;;3.10;2.80;;;7.80;99.90;;;;;;4993961;28;20442;-70
2023/01/08 09:56:00;;;;;;;2.47;2.27;;;7.80;99.90;;;;;;4995107;28;20792;-69
2023/01/08 09:58:36;;;;;;;3.33;3.00;;;7.90;99.90;;;;;;4995065;28;20549;-70
2023/01/08 10:01:03;;;;;;;2.30;2.10;;;7.90;99.90;;;;;;4994810;28;20449;-70
2023/01/08 10:03:37;;;;;;;14.53;1.90;;;8.00;99.90;;;;;;4994810;28;21037;-70
2023/01/08 10:06:11;;;;;;;3.30;3.00;;;8.00;99.90;;;;;;4994777;28;20426;-70
2023/01/08 10:08:37;;;;;;;2.77;2.03;;;8.10;99.90;;;;;;4994541;28;20927;-70
2023/01/08 10:11:04;;;;;;;1.80;1.70;;;8.20;99.90;;;;;;4994463;28;20469;-70
2023/01/08 10:13:32;;;;;;;1.53;1.43;;;8.20;99.90;;;;;;5001453;28;20237;-71
2023/01/08 10:15:58;;;;;;;1.73;1.60;;;8.30;99.90;;;;;;5005988;28;20495;-70
2023/01/08 10:18:25;;;;;;;2.20;1.83;;;8.40;99.90;;;;;;5012296;28;20433;-70
2023/01/08 10:20:51;;;;;;;1.37;1.27;;;8.40;99.90;;;;;;4996890;28;20433;-71
2023/01/08 10:23:18;;;;;;;2.03;1.80;;;8.50;99.90;;;;;;5005106;28;20889;-70
2023/01/08 10:25:59;;;;;;;2.50;1.47;;;8.50;99.90;;;;;;5001975;28;20184;-70
2023/01/08 10:28:26;;;;;;;1.60;1.50;;;8.50;99.90;;;;;;5010564;28;20441;-71
2023/01/08 10:30:57;;;;;;;2.73;2.13;;;8.60;99.90;;;;;;5000760;28;20472;-70
2023/01/08 10:33:37;;;;;;;1.70;1.60;;;8.70;99.90;;;;;;4996799;28;20500;-70
2023/01/08 10:36:07;;;;;;;1.50;1.40;;;8.70;99.90;;;;;;4998807;28;20447;-71
2023/01/08 10:38:42;;;;;;;1.70;1.60;;;8.70;99.90;;;;;;5003246;28;20866;-70
2023/01/08 10:41:13;;;;;;;1.97;1.80;;;8.70;99.90;;;;;;5000651;28;20457;-70
2023/01/08 10:43:55;;;;;;;2.17;1.63;;;8.80;99.90;;;;;;4999671;28;20462;-71
2023/01/08 10:46:24;;;;;;;3.80;2.10;;;8.80;99.90;;;;;;5005015;28;20772;-70
2023/01/08 10:48:54;;;;;;;1.70;1.53;;;8.80;99.90;;;;;;4996097;28;20932;-70
2023/01/08 10:51:24;;;;;;;1.40;1.30;;;8.80;99.90;;;;;;4996725;28;20463;-70
2023/01/08 10:53:52;;;;;;;1.63;1.53;;;8.80;99.90;;;;;;4974473;28;20486;-70
2023/01/08 10:56:26;;;;;;;1.60;1.50;;;8.90;99.90;;;;;;4986340;28;21103;-70
2023/01/08 10:58:52;;;;;;;1.43;1.33;;;8.90;99.90;;;;;;4993581;28;20411;-70
2023/01/08 11:01:22;;;;;;;1.47;1.33;;;9.00;99.90;;;;;;4997400;28;20966;-71
2023/01/08 11:04:19;;;;;;;1.30;1.20;;;9.10;99.90;;;;;;4991441;28;20288;-70
2023/01/08 11:06:47;;;;;;;1.37;1.27;;;9.20;99.90;;;;;;4996141;28;20463;-71
2023/01/08 11:09:24;;;;;;;3.80;1.57;;;9.30;99.90;;;;;;4994740;28;20437;-70
2023/01/08 11:11:50;;;;;;;1.73;1.27;;;9.30;99.90;;;;;;4994923;28;20553;-72
2023/01/08 11:14:33;;;;;;;1.40;1.23;;;9.40;99.90;;;;;;5000056;28;20855;-72
2023/01/08 11:17:01;;;;;;;1.30;1.20;;;9.40;99.90;;;;;;4997439;28;20206;-72
2023/01/08 11:19:32;;;;;;;1.30;1.20;;;9.50;99.90;;;;;;4996695;28;20443;-72
2023/01/08 11:21:59;;;;;;;1.37;1.27;;;9.50;99.90;;;;;;4998930;28;20455;-72
2023/01/08 11:24:31;;;;;;;1.07;1.00;;;9.50;99.90;;;;;;5001267;28;20473;-72
2023/01/08 11:27:08;;;;;;;1.23;1.13;;;9.50;99.90;;;;;;5001059;28;20433;-73
2023/01/08 11:29:46;;;;;;;1.27;1.17;;;9.60;99.90;;;;;;4999840;28;20434;-73
2023/01/08 11:32:14;;;;;;;2.97;2.67;;;9.60;99.90;;;;;;5004086;28;20833;-73
2023/01/08 11:34:52;;;;;;;1.33;1.10;;;9.70;99.90;;;;;;4999745;28;20516;-72
2023/01/08 11:37:32;;;;;;;1.77;1.50;;;9.70;99.90;;;;;;4997828;28;20433;-73
2023/01/08 11:39:57;;;;;;;1.40;1.30;;;9.70;99.90;;;;;;4997885;28;20457;-73
2023/01/08 11:43:01;;;;;;;1.43;1.33;;;9.80;99.90;;;;;;4992667;28;20458;-73
2023/01/08 11:46:03;;;;;;;1.67;0.83;;;9.80;99.90;;;;;;4997692;28;20183;-72
2023/01/08 11:48:48;;;;;;;1.23;1.13;;;9.90;99.90;;;;;;4992855;28;20434;-73
2023/01/08 11:51:21;;;;;;;2.00;1.00;;;9.90;99.90;;;;;;4994691;28;20454;-73
2023/01/08 11:54:06;;;;;;;1.87;1.40;;;10.00;99.90;;;;;;4992803;28;20469;-73
2023/01/08 11:56:58;;;;;;;1.40;1.30;;;10.10;99.90;;;;;;4996055;28;20434;-72
2023/01/08 11:59:53;;;;;;;0.80;0.80;;;10.00;99.90;;;;;;4992067;28;20442;-73
2023/01/08 12:02:50;;;;;;;1.83;1.73;;;9.90;99.90;;;;;;4996308;28;21222;-73
2023/01/08 12:05:36;;;;;;;1.33;0.97;;;9.80;99.90;;;;;;4995776;28;20429;-72
2023/01/08 12:08:06;;;;;;;1.33;1.10;;;9.70;99.90;;;;;;4991790;28;20461;-73
2023/01/08 12:11:09;;;;;;;1.30;1.20;;;9.80;99.90;;;;;;5000989;28;20442;-73
2023/01/08 12:14:10;;;;;;;2.93;1.83;;;9.80;99.90;;;;;;4995656;28;20446;-72
2023/01/08 12:16:48;;;;;;;2.10;1.80;;;9.80;99.90;;;;;;5000848;28;20440;-73
2023/01/08 12:19:41;;;;;;;1.10;1.03;;;9.80;99.90;;;;;;4998294;28;20815;-73
2023/01/08 12:22:38;;;;;;;0.90;0.90;;;9.80;99.90;;;;;;4993307;28;20462;-73
2023/01/08 12:25:19;;;;;;;1.20;1.13;;;9.70;99.90;;;;;;4995209;28;20497;-73
2023/01/08 12:27:53;;;;;;;1.33;1.23;;;9.80;99.90;;;;;;5002512;28;20421;-73
2023/01/08 12:30:37;;;;;;;1.90;1.57;;;9.90;99.90;;;;;;5002648;28;20421;-73
2023/01/08 12:33:12;;;;;;;0.97;0.93;;;9.90;99.90;;;;;;4993302;28;20445;-73
2023/01/08 12:35:46;;;;;;;1.30;1.20;;;9.90;99.90;;;;;;4993951;28;20982;-72
2023/01/08 12:38:27;;;;;;;1.20;1.10;;;9.90;99.90;;;;;;4997043;28;20431;-73
2023/01/08 12:41:15;;;;;;;1.57;1.17;;;9.90;99.90;;;;;;4995609;28;20542;-70
2023/01/08 12:44:00;;;;;;;2.00;1.60;;;10.00;99.90;;;;;;5001589;28;20466;-74
2023/01/08 12:46:34;;;;;;;2.20;2.00;;;10.00;99.90;;;;;;4994826;28;20426;-73
2023/01/08 12:49:03;;;;;;;2.03;1.83;;;10.00;99.90;;;;;;4999104;28;20879;-73
2023/01/08 12:51:39;;;;;;;1.50;1.40;;;10.00;99.90;;;;;;4999661;28;20459;-73
2023/01/08 12:54:33;;;;;;;1.20;1.10;;;10.00;99.90;;;;;;4999275;28;20438;-73
2023/01/08 12:57:13;;;;;;;1.73;1.30;;;10.00;99.90;;;;;;4995982;28;20434;-72
2023/01/08 12:59:49;;;;;;;1.50;1.37;;;9.90;99.90;;;;;;4999333;28;20438;-71
2023/01/08 13:02:39;;;;;;;1.57;1.47;;;10.00;99.90;;;;;;4997007;28;20524;-73
2023/01/08 13:05:27;;;;;;;1.33;1.20;;;10.00;99.90;;;;;;4991753;28;20790;-71
2023/01/08 13:07:57;;;;;;;2.40;1.50;;;10.00;99.90;;;;;;4989214;28;20518;-71